createdAt,value
2023-02-13T00:00:23.840Z,41.70
2023-02-13T00:02:51.770Z,25.85
2023-02-13T00:05:18.631Z,23.58
2023-02-13T00:07:46.330Z,22.30
2023-02-13T00:10:13.454Z,21.38
2023-02-13T00:12:40.245Z,21.75
2023-02-13T00:15:07.846Z,22.13
2023-02-13T00:17:34.732Z,22.13
2023-02-13T00:20:01.394Z,20.92
2023-02-13T00:22:28.367Z,21.27
2023-02-13T00:24:55.070Z,21.85
2023-02-13T00:27:21.803Z,20.67
2023-02-13T00:29:48.581Z,20.75
2023-02-13T00:32:15.520Z,20.42
2023-02-13T00:34:44.032Z,21.05
2023-02-13T00:37:11.242Z,21.17
2023-02-13T00:39:38.016Z,19.83
2023-02-13T00:42:05.499Z,21.08
2023-02-13T00:44:32.368Z,19.92
2023-02-13T00:46:59.306Z,19.67
2023-02-13T00:49:26.120Z,19.50
2023-02-13T00:51:52.851Z,20.27
2023-02-13T00:54:19.626Z,20.40
2023-02-13T00:56:46.282Z,19.25
2023-02-13T00:59:13.156Z,20.75
2023-02-13T01:01:39.908Z,19.80
2023-02-13T01:04:06.595Z,20.75
2023-02-13T01:06:33.368Z,18.85
2023-02-13T01:09:00.155Z,18.80
2023-02-13T01:11:26.915Z,19.15
2023-02-13T01:13:54.604Z,18.75
2023-02-13T01:16:21.335Z,18.58
2023-02-13T01:18:48.099Z,19.30
2023-02-13T01:21:18.736Z,17.70
2023-02-13T01:23:45.926Z,18.67
2023-02-13T01:26:18.531Z,19.48
2023-02-13T01:28:45.512Z,19.02
2023-02-13T01:31:12.394Z,17.77
2023-02-13T01:33:39.182Z,18.40
2023-02-13T01:36:08.284Z,18.25
2023-02-13T01:38:35.122Z,18.15
2023-02-13T01:41:01.944Z,17.67
2023-02-13T01:43:47.388Z,18.35
2023-02-13T01:46:19.160Z,18.42
2023-02-13T01:48:48.130Z,17.98
2023-02-13T01:51:25.630Z,17.45
2023-02-13T01:53:59.506Z,16.67
2023-02-13T01:56:33.840Z,18.27
2023-02-13T01:59:04.204Z,18.52
2023-02-13T02:01:32.379Z,17.27
2023-02-13T02:04:06.574Z,17.83
2023-02-13T02:06:38.316Z,18.00
2023-02-13T02:09:16.204Z,18.00
2023-02-13T02:11:53.203Z,17.27
2023-02-13T02:14:20.379Z,17.20
2023-02-13T02:16:47.152Z,16.85
2023-02-13T02:19:42.445Z,18.08
2023-02-13T02:22:36.364Z,18.27
2023-02-13T02:25:38.147Z,17.25
2023-02-13T02:28:23.820Z,17.35
2023-02-13T02:30:59.876Z,17.92
2023-02-13T02:34:03.118Z,17.98
2023-02-13T02:36:43.182Z,17.88
2023-02-13T02:39:19.116Z,17.08
2023-02-13T02:42:12.914Z,18.20
2023-02-13T02:44:53.318Z,17.80
2023-02-13T02:48:13.719Z,17.27
2023-02-13T02:51:01.459Z,16.92
2023-02-13T02:53:37.207Z,17.40
2023-02-13T02:56:20.292Z,18.02
2023-02-13T02:59:30.136Z,17.35
2023-02-13T03:02:17.557Z,17.73
2023-02-13T03:05:10.262Z,18.40
2023-02-13T03:07:36.989Z,17.35
2023-02-13T03:10:28.931Z,18.20
2023-02-13T03:13:20.918Z,17.75
2023-02-13T03:16:13.086Z,17.77
2023-02-13T03:19:03.140Z,18.05
2023-02-13T03:22:06.410Z,17.67
2023-02-13T03:24:58.464Z,17.48
2023-02-13T03:27:46.686Z,18.60
2023-02-13T03:30:58.429Z,18.05
2023-02-13T03:33:54.904Z,18.15
2023-02-13T03:37:03.118Z,18.50
2023-02-13T03:39:46.319Z,17.90
2023-02-13T03:42:20.552Z,17.63
2023-02-13T03:45:14.789Z,17.35
2023-02-13T03:47:44.040Z,17.80
2023-02-13T03:50:12.775Z,17.65
2023-02-13T03:53:06.093Z,18.95
2023-02-13T03:55:55.807Z,18.50
2023-02-13T03:58:54.497Z,17.10
2023-02-13T04:01:26.844Z,18.75
2023-02-13T04:03:56.466Z,18.17
2023-02-13T04:06:31.748Z,17.50
2023-02-13T04:08:58.812Z,18.17
2023-02-13T04:11:33.087Z,18.38
2023-02-13T04:14:04.638Z,17.83
2023-02-13T04:16:43.699Z,17.58
2023-02-13T04:19:11.832Z,17.98
2023-02-13T04:21:40.362Z,19.35
2023-02-13T04:24:08.121Z,19.65
2023-02-13T04:26:42.784Z,17.10
2023-02-13T04:29:09.893Z,18.10
2023-02-13T04:31:36.783Z,17.77
2023-02-13T04:34:03.649Z,18.08
2023-02-13T04:36:30.656Z,18.23
2023-02-13T04:38:57.803Z,17.83
2023-02-13T04:41:24.626Z,17.40
2023-02-13T04:43:52.572Z,17.08
2023-02-13T04:46:19.527Z,17.98
2023-02-13T04:48:46.403Z,17.23
2023-02-13T04:51:13.348Z,17.38
2023-02-13T04:53:40.103Z,17.67
2023-02-13T04:56:07.046Z,18.08
2023-02-13T04:58:33.802Z,17.40
2023-02-13T05:01:00.646Z,17.63
2023-02-13T05:03:27.480Z,17.08
2023-02-13T05:05:55.252Z,16.15
2023-02-13T05:08:22.026Z,17.17
2023-02-13T05:10:48.790Z,17.20
2023-02-13T05:13:16.640Z,14.98
2023-02-13T05:15:43.414Z,15.85
2023-02-13T05:18:10.156Z,17.17
2023-02-13T05:20:39.391Z,17.15
2023-02-13T05:23:24.515Z,16.77
2023-02-13T05:25:51.155Z,16.42
2023-02-13T05:28:36.565Z,16.23
2023-02-13T05:31:04.574Z,16.83
2023-02-13T05:33:31.340Z,16.52
2023-02-13T05:35:58.005Z,18.27
2023-02-13T05:38:24.818Z,17.30
2023-02-13T05:40:51.534Z,17.10
2023-02-13T05:43:19.235Z,16.83
2023-02-13T05:45:45.909Z,17.70
2023-02-13T05:48:12.614Z,17.30
2023-02-13T05:50:39.280Z,17.42
2023-02-13T05:53:05.995Z,18.02
2023-02-13T05:55:32.645Z,18.00
2023-02-13T05:57:59.415Z,17.40
2023-02-13T06:00:26.194Z,18.00
2023-02-13T06:02:53.071Z,16.70
2023-02-13T06:05:19.797Z,17.92
2023-02-13T06:07:46.488Z,17.88
2023-02-13T06:10:13.188Z,18.88
2023-02-13T06:12:39.919Z,17.67
2023-02-13T06:15:08.010Z,17.23
2023-02-13T06:17:34.927Z,18.02
2023-02-13T06:20:01.753Z,17.95
2023-02-13T06:22:28.483Z,17.83
2023-02-13T06:24:55.284Z,17.00
2023-02-13T06:27:22.012Z,17.42
2023-02-13T06:29:48.783Z,17.77
2023-02-13T06:32:15.498Z,19.40
2023-02-13T06:34:42.127Z,19.77
2023-02-13T06:37:08.826Z,18.35
2023-02-13T06:39:35.461Z,18.02
2023-02-13T06:42:02.152Z,18.35
2023-02-13T06:44:28.921Z,17.83
2023-02-13T06:46:55.679Z,19.00
2023-02-13T06:49:22.418Z,22.33
2023-02-13T06:51:49.063Z,19.58
2023-02-13T06:54:15.897Z,19.65
2023-02-13T06:56:42.561Z,18.77
2023-02-13T06:59:09.213Z,19.08
2023-02-13T07:01:35.863Z,19.85
2023-02-13T07:04:02.507Z,20.58
2023-02-13T07:06:29.376Z,21.08
2023-02-13T07:08:56.247Z,20.77
2023-02-13T07:11:24.541Z,20.42
2023-02-13T07:13:51.291Z,19.50
2023-02-13T07:16:18.189Z,20.00
2023-02-13T07:18:57.831Z,20.45
2023-02-13T07:21:24.819Z,20.97
2023-02-13T07:23:52.360Z,20.50
2023-02-13T07:26:19.170Z,21.52
2023-02-13T07:28:46.043Z,20.17
2023-02-13T07:31:14.497Z,21.85
2023-02-13T07:33:41.289Z,19.90
2023-02-13T07:36:08.308Z,20.95
2023-02-13T07:38:35.086Z,20.83
2023-02-13T07:41:03.483Z,20.70
2023-02-13T07:43:30.728Z,21.52
2023-02-13T07:46:02.047Z,21.10
2023-02-13T07:48:31.713Z,20.80
2023-02-13T07:51:03.790Z,20.23
2023-02-13T07:53:31.600Z,20.55
2023-02-13T07:56:04.841Z,20.83
2023-02-13T07:58:31.608Z,19.38
2023-02-13T08:00:58.584Z,21.02
2023-02-13T08:03:25.359Z,20.27
2023-02-13T08:05:52.192Z,21.02
2023-02-13T08:08:18.880Z,19.33
2023-02-13T08:11:04.043Z,21.60
2023-02-13T08:13:30.843Z,19.75
2023-02-13T08:15:57.823Z,18.67
2023-02-13T08:18:24.716Z,20.52
2023-02-13T08:20:51.338Z,21.95
2023-02-13T08:23:18.411Z,20.02
2023-02-13T08:25:45.274Z,22.80
2023-02-13T08:28:12.066Z,23.55
2023-02-13T08:30:38.886Z,21.95
2023-02-13T08:33:05.644Z,21.80
2023-02-13T08:35:32.525Z,21.05
2023-02-13T08:38:05.094Z,20.90
2023-02-13T08:40:32.550Z,21.65
2023-02-13T08:43:06.682Z,20.08
2023-02-13T08:45:34.009Z,20.10
2023-02-13T08:48:03.832Z,19.65
2023-02-13T08:50:30.987Z,20.95
2023-02-13T08:52:58.616Z,21.05
2023-02-13T08:55:25.950Z,20.88
2023-02-13T08:57:52.688Z,20.55
2023-02-13T09:00:20.087Z,19.50
2023-02-13T09:02:47.843Z,19.35
2023-02-13T09:05:14.720Z,18.50
2023-02-13T09:07:41.406Z,19.90
2023-02-13T09:10:08.698Z,19.13
2023-02-13T09:12:36.534Z,18.80
2023-02-13T09:15:03.574Z,18.50
2023-02-13T09:17:30.323Z,19.23
2023-02-13T09:19:56.978Z,18.33
2023-02-13T09:22:23.900Z,18.55
2023-02-13T09:24:50.603Z,18.20
2023-02-13T09:27:17.491Z,17.00
2023-02-13T09:29:44.441Z,19.02
2023-02-13T09:32:12.337Z,17.65
2023-02-13T09:34:39.128Z,18.52
2023-02-13T09:37:05.875Z,18.13
2023-02-13T09:39:32.703Z,18.40
2023-02-13T09:42:00.927Z,19.98
2023-02-13T09:44:35.587Z,19.33
2023-02-13T09:47:15.955Z,18.27
2023-02-13T09:49:48.623Z,19.70
2023-02-13T09:52:15.629Z,18.70
2023-02-13T09:54:42.516Z,20.58
2023-02-13T09:57:31.142Z,17.80
2023-02-13T10:00:19.735Z,18.50
2023-02-13T10:02:54.966Z,17.75
2023-02-13T10:05:39.612Z,19.35
2023-02-13T10:08:23.497Z,17.55
2023-02-13T10:10:57.757Z,17.48
2023-02-13T10:13:48.063Z,16.83
2023-02-13T10:16:49.434Z,18.35
2023-02-13T10:19:40.057Z,17.98
2023-02-13T10:24:57.292Z,18.17
2023-02-13T10:27:27.209Z,17.45
2023-02-13T10:30:26.430Z,18.70
2023-02-13T10:33:21.492Z,19.02
2023-02-13T10:36:00.448Z,17.90
2023-02-13T10:38:31.001Z,16.95
2023-02-13T10:43:29.978Z,16.90
2023-02-13T10:46:07.286Z,16.02
2023-02-13T10:48:59.282Z,17.88
2023-02-13T10:51:36.052Z,16.75
2023-02-13T10:54:25.027Z,13.43
2023-02-13T10:57:05.468Z,17.25
2023-02-13T11:00:00.193Z,15.63
2023-02-13T11:02:36.994Z,14.95
2023-02-13T11:05:15.799Z,15.07
2023-02-13T11:07:44.141Z,15.60
2023-02-13T11:10:20.079Z,16.08
2023-02-13T11:12:46.956Z,16.10
2023-02-13T11:15:29.720Z,16.67
2023-02-13T11:18:03.797Z,17.15
2023-02-13T11:20:35.565Z,15.63
2023-02-13T11:23:24.293Z,15.63
2023-02-13T11:26:07.694Z,14.55
2023-02-13T11:28:39.844Z,16.58
2023-02-13T11:31:15.500Z,17.02
2023-02-13T11:33:42.752Z,15.75
2023-02-13T11:36:25.932Z,15.25
2023-02-13T11:39:05.664Z,17.00
2023-02-13T11:41:41.819Z,17.67
2023-02-13T11:44:28.028Z,17.48
2023-02-13T11:47:02.965Z,15.98
2023-02-13T11:49:37.277Z,14.55
2023-02-13T11:52:07.413Z,13.38
2023-02-13T11:54:42.137Z,15.63
2023-02-13T11:57:23.702Z,15.15
2023-02-13T11:59:54.058Z,15.10
2023-02-13T12:02:29.729Z,14.68
2023-02-13T12:05:14.714Z,13.98
2023-02-13T12:07:42.842Z,13.25
2023-02-13T12:10:18.320Z,12.75
2023-02-13T12:13:15.466Z,13.93
2023-02-13T12:15:43.434Z,12.15
2023-02-13T12:18:18.966Z,13.23
2023-02-13T12:21:08.720Z,13.15
2023-02-13T12:23:53.548Z,13.23
2023-02-13T12:26:43.916Z,13.35
2023-02-13T12:29:36.157Z,12.77
2023-02-13T12:32:17.741Z,11.35
2023-02-13T12:35:16.948Z,12.95
2023-02-13T12:38:00.359Z,12.63
2023-02-13T12:40:51.670Z,13.55
2023-02-13T12:43:42.888Z,13.05
2023-02-13T12:46:14.252Z,14.10
2023-02-13T12:49:20.219Z,12.57
2023-02-13T12:52:15.023Z,13.40
2023-02-13T12:54:50.487Z,13.00
2023-02-13T12:57:27.165Z,13.15
2023-02-13T13:00:03.419Z,12.13
2023-02-13T13:02:51.721Z,12.93
2023-02-13T13:05:38.608Z,13.13
2023-02-13T13:08:42.777Z,12.57
2023-02-13T13:11:43.896Z,12.93
2023-02-13T13:14:10.563Z,12.68
2023-02-13T13:17:09.174Z,12.48
2023-02-13T13:19:50.987Z,12.90
2023-02-13T13:22:53.587Z,10.32
2023-02-13T13:25:48.075Z,10.77
2023-02-13T13:28:23.932Z,12.55
2023-02-13T13:30:52.411Z,11.32
2023-02-13T13:33:25.275Z,11.68
2023-02-13T13:36:14.213Z,12.07
2023-02-13T13:39:06.528Z,12.88
2023-02-13T13:41:41.772Z,11.23
2023-02-13T13:44:11.214Z,13.23
2023-02-13T13:46:56.453Z,13.35
2023-02-13T13:49:28.744Z,11.70
2023-02-13T13:52:28.435Z,11.98
2023-02-13T13:54:57.339Z,11.50
2023-02-13T13:57:48.101Z,10.98
2023-02-13T14:00:16.894Z,11.77
2023-02-13T14:02:51.160Z,11.00
2023-02-13T14:05:20.309Z,11.38
2023-02-13T14:07:50.445Z,11.90
2023-02-13T14:10:49.292Z,11.23
2023-02-13T14:13:31.442Z,11.38
2023-02-13T14:15:59.393Z,11.73
2023-02-13T14:18:27.309Z,11.57
2023-02-13T14:21:00.534Z,11.50
2023-02-13T14:23:30.168Z,11.27
2023-02-13T14:26:18.136Z,10.80
2023-02-13T14:28:50.380Z,9.57
2023-02-13T14:31:39.184Z,9.55
2023-02-13T14:34:23.070Z,9.88
2023-02-13T14:37:02.024Z,10.85
2023-02-13T14:39:31.472Z,10.68
2023-02-13T14:42:28.538Z,9.98
2023-02-13T14:44:58.398Z,10.10
2023-02-13T14:47:32.478Z,10.60
2023-02-13T14:50:03.168Z,10.82
2023-02-13T14:52:35.774Z,10.25
2023-02-13T14:55:12.878Z,9.45
2023-02-13T14:57:45.284Z,10.50
2023-02-13T15:00:28.427Z,10.45
2023-02-13T15:03:34.267Z,12.20
2023-02-13T15:06:06.071Z,11.50
2023-02-13T15:08:38.187Z,10.85
2023-02-13T15:11:24.995Z,12.07
2023-02-13T15:13:51.743Z,10.40
2023-02-13T15:16:19.472Z,11.32
2023-02-13T15:18:52.467Z,11.40
2023-02-13T15:21:22.798Z,10.50
2023-02-13T15:23:52.506Z,10.25
2023-02-13T15:26:24.461Z,10.30
2023-02-13T15:29:07.414Z,10.43
2023-02-13T15:31:38.366Z,10.85
2023-02-13T15:34:28.239Z,10.50
2023-02-13T15:36:55.814Z,11.52
2023-02-13T15:39:28.265Z,11.20
2023-02-13T15:42:01.414Z,13.45
2023-02-13T15:44:35.131Z,23.65
2023-02-13T15:47:07.683Z,13.80
2023-02-13T15:49:46.614Z,13.65
2023-02-13T15:52:16.862Z,14.10
2023-02-13T15:54:52.254Z,14.13
2023-02-13T15:57:20.242Z,12.85
2023-02-13T15:59:47.786Z,13.50
2023-02-13T16:02:29.949Z,13.60
2023-02-13T16:04:56.825Z,14.43
2023-02-13T16:07:23.559Z,15.10
2023-02-13T16:09:52.498Z,15.02
2023-02-13T16:12:27.949Z,14.45
2023-02-13T16:14:55.184Z,13.73
2023-02-13T16:17:44.230Z,14.55
2023-02-13T16:20:11.411Z,13.68
2023-02-13T16:22:44.336Z,13.50
2023-02-13T16:25:14.205Z,13.85
2023-02-13T16:27:48.503Z,13.82
2023-02-13T16:30:32.132Z,13.52
2023-02-13T16:33:33.425Z,14.40
2023-02-13T16:36:10.809Z,14.13
2023-02-13T16:38:38.850Z,13.95
2023-02-13T16:41:08.320Z,15.80
2023-02-13T16:43:51.699Z,14.82
2023-02-13T16:46:19.110Z,14.40
2023-02-13T16:49:01.645Z,15.00
2023-02-13T16:51:46.932Z,15.18
2023-02-13T16:54:36.697Z,15.30
2023-02-13T16:57:19.651Z,14.68
2023-02-13T16:59:52.964Z,15.27
2023-02-13T17:02:21.828Z,15.50
2023-02-13T17:05:27.230Z,14.95
2023-02-13T17:08:00.632Z,15.15
2023-02-13T17:10:36.175Z,16.08
2023-02-13T17:13:15.169Z,14.95
2023-02-13T17:15:44.004Z,14.85
2023-02-13T17:18:11.138Z,15.05
2023-02-13T17:20:41.741Z,14.10
2023-02-13T17:23:22.431Z,13.90
2023-02-13T17:25:51.997Z,14.40
2023-02-13T17:28:21.857Z,14.37
2023-02-13T17:30:50.938Z,12.95
2023-02-13T17:33:25.952Z,13.25
2023-02-13T17:35:53.712Z,13.30
2023-02-13T17:38:20.844Z,13.43
2023-02-13T17:40:48.449Z,13.05
2023-02-13T17:43:17.439Z,12.80
2023-02-13T17:45:45.665Z,12.98
2023-02-13T17:48:13.840Z,13.73
2023-02-13T17:50:40.964Z,13.18
2023-02-13T17:53:30.441Z,12.10
2023-02-13T17:55:57.590Z,12.68
2023-02-13T17:58:24.770Z,20.88
2023-02-13T18:00:52.484Z,15.15
2023-02-13T18:03:19.386Z,13.05
2023-02-13T18:05:49.583Z,12.90
2023-02-13T18:08:16.433Z,12.68
2023-02-13T18:10:43.234Z,12.52
2023-02-13T18:13:10.030Z,15.45
2023-02-13T18:15:42.013Z,14.25
2023-02-13T18:18:09.478Z,14.57
2023-02-13T18:20:37.192Z,14.73
2023-02-13T18:23:03.937Z,13.50
2023-02-13T18:25:30.798Z,14.25
2023-02-13T18:27:57.587Z,14.40
2023-02-13T18:30:25.183Z,14.40
2023-02-13T18:32:53.670Z,14.70
2023-02-13T18:35:21.873Z,13.88
2023-02-13T18:37:49.058Z,12.80
2023-02-13T18:40:17.152Z,13.43
2023-02-13T18:42:44.431Z,15.63
2023-02-13T18:45:12.114Z,14.40
2023-02-13T18:47:40.850Z,15.00
2023-02-13T18:50:09.086Z,16.08
2023-02-13T18:52:36.182Z,16.45
2023-02-13T18:55:04.111Z,15.80
2023-02-13T18:57:30.791Z,15.57
2023-02-13T18:59:57.476Z,15.77
2023-02-13T19:02:24.366Z,17.23
2023-02-13T19:04:51.276Z,17.10
2023-02-13T19:07:17.956Z,19.02
2023-02-13T19:09:44.759Z,20.42
2023-02-13T19:12:11.617Z,19.13
2023-02-13T19:14:39.121Z,18.48
2023-02-13T19:17:08.123Z,24.48
2023-02-13T19:19:34.769Z,21.23
2023-02-13T19:22:01.521Z,20.63
2023-02-13T19:24:28.218Z,25.67
2023-02-13T19:26:54.963Z,25.83
2023-02-13T19:29:21.745Z,26.98
2023-02-13T19:31:48.535Z,25.50
2023-02-13T19:34:15.264Z,26.08
2023-02-13T19:36:41.950Z,25.70
2023-02-13T19:39:09.165Z,25.23
2023-02-13T19:41:36.205Z,25.63
2023-02-13T19:44:06.138Z,23.65
2023-02-13T19:46:34.299Z,24.58
2023-02-13T19:49:01.389Z,25.00
2023-02-13T19:51:30.936Z,27.35
2023-02-13T19:54:08.783Z,29.30
2023-02-13T19:56:37.742Z,27.13
2023-02-13T19:59:06.817Z,27.73
2023-02-13T20:01:33.706Z,25.38
2023-02-13T20:04:02.595Z,25.88
2023-02-13T20:06:36.135Z,26.63
2023-02-13T20:09:10.165Z,25.27
2023-02-13T20:11:37.252Z,24.55
2023-02-13T20:14:05.429Z,24.75
2023-02-13T20:16:35.072Z,24.42
2023-02-13T20:19:06.292Z,30.77
2023-02-13T20:21:34.376Z,28.50
2023-02-13T20:24:05.102Z,28.60
2023-02-13T20:26:31.860Z,29.25
2023-02-13T20:28:59.649Z,27.67
2023-02-13T20:31:27.584Z,27.10
2023-02-13T20:33:54.349Z,27.83
2023-02-13T20:36:24.463Z,27.55
2023-02-13T20:38:54.411Z,26.80
2023-02-13T20:41:25.755Z,25.65
2023-02-13T20:43:52.802Z,26.10
2023-02-13T20:46:19.550Z,27.42
2023-02-13T20:48:47.997Z,26.15
2023-02-13T20:51:19.603Z,28.65
2023-02-13T20:53:46.827Z,29.95
2023-02-13T20:56:16.495Z,29.50
2023-02-13T20:58:45.603Z,28.23
2023-02-13T21:01:14.249Z,27.52
2023-02-13T21:03:41.487Z,28.42
2023-02-13T21:06:09.596Z,28.27
2023-02-13T21:08:36.439Z,29.00
2023-02-13T21:11:05.536Z,28.25
2023-02-13T21:13:33.425Z,29.15
2023-02-13T21:16:10.159Z,29.67
2023-02-13T21:18:38.474Z,28.92
2023-02-13T21:21:05.546Z,30.63
2023-02-13T21:23:32.902Z,32.70
2023-02-13T21:26:14.097Z,37.10
2023-02-13T21:28:41.646Z,39.13
2023-02-13T21:31:14.481Z,39.25
2023-02-13T21:33:41.203Z,36.35
2023-02-13T21:36:10.290Z,38.08
2023-02-13T21:38:38.107Z,37.80
2023-02-13T21:41:16.771Z,35.03
2023-02-13T21:43:46.740Z,32.85
2023-02-13T21:46:16.563Z,30.27
2023-02-13T21:48:43.842Z,31.23
2023-02-13T21:51:16.064Z,27.42
2023-02-13T21:53:45.447Z,29.00
2023-02-13T21:56:15.466Z,26.95
2023-02-13T21:58:43.677Z,26.00
2023-02-13T22:01:20.527Z,25.48
2023-02-13T22:03:52.993Z,25.55
2023-02-13T22:06:21.004Z,26.35
2023-02-13T22:08:48.137Z,27.92
2023-02-13T22:11:16.139Z,26.13
2023-02-13T22:13:42.884Z,27.58
2023-02-13T22:16:13.237Z,28.27
2023-02-13T22:18:43.092Z,27.50
2023-02-13T22:21:15.289Z,27.48
2023-02-13T22:23:43.857Z,27.77
2023-02-13T22:26:20.847Z,27.77
2023-02-13T22:28:47.907Z,25.38
2023-02-13T22:31:16.147Z,26.02
2023-02-13T22:33:47.439Z,23.10
2023-02-13T22:36:18.064Z,23.48
2023-02-13T22:38:45.842Z,21.30
2023-02-13T22:41:15.394Z,22.40
2023-02-13T22:43:42.719Z,22.63
2023-02-13T22:46:21.904Z,22.02
2023-02-13T22:48:51.924Z,22.15
2023-02-13T22:51:25.249Z,22.42
2023-02-13T22:53:57.237Z,22.02
2023-02-13T22:56:26.655Z,21.83
2023-02-13T22:58:53.731Z,21.08
2023-02-13T23:01:24.203Z,22.27
2023-02-13T23:06:18.379Z,20.67
2023-02-13T23:08:45.409Z,22.42
2023-02-13T23:11:33.291Z,23.88
2023-02-13T23:14:00.622Z,21.98
2023-02-13T23:16:27.547Z,21.67
2023-02-13T23:18:56.424Z,21.33
2023-02-13T23:21:24.136Z,20.55
2023-02-13T23:23:51.134Z,21.20
2023-02-13T23:26:18.398Z,22.60
2023-02-13T23:28:45.332Z,21.27
2023-02-13T23:31:12.397Z,22.45
2023-02-13T23:33:39.302Z,22.13
2023-02-13T23:36:06.759Z,22.73
2023-02-13T23:38:33.512Z,23.08
2023-02-13T23:41:09.418Z,23.85
2023-02-13T23:43:36.250Z,22.48
2023-02-13T23:46:04.703Z,23.00
2023-02-13T23:48:32.200Z,23.00
2023-02-13T23:50:59.366Z,24.00
2023-02-13T23:53:26.285Z,23.95
2023-02-13T23:55:55.101Z,23.83
2023-02-13T23:58:22.936Z,23.30
